Time;durP1;ratioP1;P1;durP2;ratioP2;P2;SDS_P1;SDS_P2;PMS_P1;PMS_P2;Temp;Humidity;BMP_temperature;BMP_pressure;BME280_temperature;BME280_humidity;BME280_pressure;Samples;Min_cycle;Max_cycle;Signal;HPM_P1;HPM_P2
2021/09/21 00:01:08;;;;;;;20.87;12.87;;;;;;;-143.90;100.00;58478.06;5094663;28;20812;-85
2021/09/21 00:03:35;;;;;;;20.43;12.60;;;;;;;-143.90;100.00;58478.06;5094351;28;20394;-83
2021/09/21 00:06:02;;;;;;;17.90;12.87;;;;;;;-143.90;100.00;58478.06;5093989;28;20167;-80
2021/09/21 00:08:27;;;;;;;18.53;12.17;;;;;;;-143.90;100.00;58478.06;5093326;28;20940;-81
2021/09/21 00:10:54;;;;;;;19.43;13.43;;;;;;;-143.90;100.00;58478.06;5092481;28;20417;-83
2021/09/21 00:13:20;;;;;;;20.70;13.50;;;;;;;-143.90;100.00;58478.06;5092485;28;20163;-84
2021/09/21 00:15:45;;;;;;;18.27;11.03;;;;;;;-143.90;100.00;58478.06;5075648;28;20425;-82
2021/09/21 00:18:11;;;;;;;21.07;14.27;;;;;;;-143.90;100.00;58478.06;5093724;28;20199;-83
2021/09/21 00:20:36;;;;;;;22.53;14.90;;;;;;;-143.90;100.00;58478.06;5093957;28;20191;-83
2021/09/21 00:23:02;;;;;;;20.27;14.03;;;;;;;-143.90;100.00;58478.06;5077280;28;20176;-85
2021/09/21 00:25:28;;;;;;;22.70;15.03;;;;;;;-143.90;100.00;58478.06;5094943;28;20337;-86
2021/09/21 00:27:53;;;;;;;23.30;14.77;;;;;;;-143.90;100.00;58478.06;5095680;28;20551;-85
2021/09/21 00:30:20;;;;;;;21.70;16.50;;;;;;;-143.90;100.00;58478.06;5094679;28;20630;-90
2021/09/21 00:32:49;;;;;;;20.77;13.37;;;;;;;-143.90;100.00;58478.06;5094028;28;20159;-82
2021/09/21 00:35:14;;;;;;;23.50;12.63;;;;;;;-143.90;100.00;58478.06;5094674;28;20417;-84
2021/09/21 00:37:40;;;;;;;24.00;15.53;;;;;;;-143.90;100.00;58478.06;5075496;28;20999;-82
2021/09/21 00:40:06;;;;;;;21.37;14.03;;;;;;;-143.90;100.00;58478.06;5093088;28;20183;-83
2021/09/21 00:42:32;;;;;;;21.20;11.23;;;;;;;-143.90;100.00;58478.06;5093519;28;20644;-84
2021/09/21 00:45:01;;;;;;;23.47;15.87;;;;;;;-143.90;100.00;58478.06;5075454;28;20975;-84
2021/09/21 00:47:27;;;;;;;24.17;15.70;;;;;;;-143.90;100.00;58478.06;5076231;28;20478;-85
2021/09/21 00:49:53;;;;;;;18.80;12.20;;;;;;;-143.90;100.00;58478.06;5094953;28;20926;-85
2021/09/21 00:52:20;;;;;;;24.70;13.97;;;;;;;-143.90;100.00;58478.06;5094658;28;20406;-83
2021/09/21 00:54:46;;;;;;;23.60;14.80;;;;;;;-143.90;100.00;58478.06;5092996;28;20754;-82
2021/09/21 00:57:13;;;;;;;23.00;14.30;;;;;;;-143.90;100.00;58478.06;5093481;28;21068;-82
2021/09/21 00:59:39;;;;;;;23.83;14.33;;;;;;;-143.90;100.00;58478.06;5093127;28;20524;-83
2021/09/21 01:02:04;;;;;;;24.33;15.47;;;;;;;-143.90;100.00;58478.06;5093018;28;20481;-84
2021/09/21 01:04:31;;;;;;;20.33;13.90;;;;;;;-143.90;100.00;58478.06;5093029;28;20570;-81
2021/09/21 01:06:57;;;;;;;15.40;10.33;;;;;;;-143.90;100.00;58478.06;5075789;28;20254;-85
2021/09/21 01:09:24;;;;;;;22.73;14.73;;;;;;;-143.90;100.00;58478.06;5075865;28;20414;-84
2021/09/21 01:11:54;;;;;;;18.40;12.90;;;;;;;-143.90;100.00;58478.06;5093950;28;20421;-82
2021/09/21 01:14:21;;;;;;;21.83;13.63;;;;;;;-143.90;100.00;58478.06;5057111;28;20457;-85
2021/09/21 01:16:47;;;;;;;17.83;10.80;;;;;;;-143.90;100.00;58478.06;5093976;28;20397;-82
2021/09/21 01:19:15;;;;;;;20.23;12.77;;;;;;;-143.90;100.00;58478.06;5110811;28;20494;-81
2021/09/21 01:21:44;;;;;;;18.23;10.17;;;;;;;-143.90;100.00;58478.06;5096204;28;20408;-77
2021/09/21 01:24:12;;;;;;;18.97;12.63;;;;;;;-143.90;100.00;58478.06;5110863;28;20410;-87
2021/09/21 01:26:38;;;;;;;14.63;10.43;;;;;;;-143.90;100.00;58478.06;5093836;28;20386;-82
2021/09/21 01:29:04;;;;;;;16.50;9.80;;;;;;;-143.90;100.00;58478.06;5093438;28;20414;-82
2021/09/21 01:31:30;;;;;;;17.10;10.40;;;;;;;-143.90;100.00;58478.06;5093741;28;20160;-87
2021/09/21 01:33:56;;;;;;;17.70;7.87;;;;;;;-143.90;100.00;58478.06;5092414;28;20402;-80
2021/09/21 01:36:24;;;;;;;13.93;7.50;;;;;;;-143.90;100.00;58478.06;5092638;28;20826;-83
2021/09/21 01:38:50;;;;;;;16.13;10.03;;;;;;;-143.90;100.00;58478.06;5091915;28;20422;-79
2021/09/21 01:41:16;;;;;;;16.87;8.07;;;;;;;-143.90;100.00;58478.06;5092808;28;20456;-80
2021/09/21 01:43:44;;;;;;;12.50;7.20;;;;;;;-143.90;100.00;58478.06;5092635;28;20426;-81
2021/09/21 01:46:10;;;;;;;13.40;8.33;;;;;;;-143.90;100.00;58478.06;5092496;28;20417;-87
2021/09/21 01:48:36;;;;;;;17.57;8.40;;;;;;;-143.90;100.00;58478.06;5092777;28;20426;-75
2021/09/21 01:51:04;;;;;;;12.07;7.80;;;;;;;-143.90;100.00;58478.06;5074648;28;20509;-83
2021/09/21 01:58:50;;;;;;;12.00;7.77;;;;;;;-143.90;100.00;58478.06;5091864;28;20520;-84
2021/09/21 02:01:27;;;;;;;11.60;6.87;;;;;;;-143.90;100.00;58478.06;5091927;28;20449;-83
2021/09/21 02:03:57;;;;;;;12.40;8.07;;;;;;;-143.90;100.00;58478.06;5091380;28;20421;-81
2021/09/21 02:06:41;;;;;;;11.37;7.60;;;;;;;-143.90;100.00;58478.06;5091483;28;20993;-82
2021/09/21 02:09:10;;;;;;;9.37;5.80;;;;;;;-143.90;100.00;58478.06;5089220;28;20413;-84
2021/09/21 02:11:37;;;;;;;9.97;5.57;;;;;;;-143.90;100.00;58478.06;5099605;28;20405;-77
2021/09/21 02:14:04;;;;;;;9.80;5.90;;;;;;;-143.90;100.00;58478.06;5092293;28;20414;-81
2021/09/21 02:16:31;;;;;;;8.90;5.00;;;;;;;-143.90;100.00;58478.06;5073166;28;20414;-76
2021/09/21 02:18:58;;;;;;;9.20;6.00;;;;;;;-143.90;100.00;58478.06;5091279;28;20405;-82
2021/09/21 02:21:24;;;;;;;7.83;5.30;;;;;;;-143.90;100.00;58478.06;5091374;28;20438;-76
2021/09/21 02:23:51;;;;;;;8.80;5.30;;;;;;;-143.90;100.00;58478.06;5091336;28;20413;-84
2021/09/21 02:26:17;;;;;;;8.57;4.90;;;;;;;-143.90;100.00;58478.06;5090553;28;20442;-83
2021/09/21 02:28:42;;;;;;;9.20;5.33;;;;;;;-143.90;100.00;58478.06;5091002;28;20966;-83
2021/09/21 02:31:08;;;;;;;7.50;4.53;;;;;;;-143.90;100.00;58478.06;5090265;28;20458;-82
2021/09/21 02:33:34;;;;;;;10.20;5.80;;;;;;;-143.90;100.00;58478.06;5090654;28;20235;-83
2021/09/21 02:36:00;;;;;;;10.90;5.90;;;;;;;-143.90;100.00;58478.06;5092439;28;20164;-78
2021/09/21 02:38:25;;;;;;;10.03;6.33;;;;;;;-143.90;100.00;58478.06;5094097;28;20420;-77
2021/09/21 02:40:51;;;;;;;10.93;6.17;;;;;;;-143.90;100.00;58478.06;5095238;28;20195;-80
2021/09/21 02:43:16;;;;;;;11.43;7.00;;;;;;;-143.90;100.00;58478.06;5094943;28;20280;-78
2021/09/21 02:45:42;;;;;;;12.07;6.80;;;;;;;-143.90;100.00;58478.06;5094347;28;20213;-77
2021/09/21 02:48:08;;;;;;;12.17;6.57;;;;;;;-143.90;100.00;58478.06;5076073;28;20252;-79
2021/09/21 02:50:34;;;;;;;10.50;6.40;;;;;;;-143.90;100.00;58478.06;5094056;28;20178;-77
2021/09/21 02:53:00;;;;;;;12.27;6.37;;;;;;;-143.90;100.00;58478.06;5094420;28;20699;-80
2021/09/21 02:55:26;;;;;;;9.60;6.53;;;;;;;-143.90;100.00;58478.06;5094013;28;20410;-79
2021/09/21 02:57:51;;;;;;;9.23;6.50;;;;;;;-143.90;100.00;58478.06;5094716;28;20168;-81
2021/09/21 03:00:22;;;;;;;10.30;6.30;;;;;;;-143.90;100.00;58478.06;5093825;28;20206;-81
2021/09/21 03:02:48;;;;;;;11.03;6.03;;;;;;;-143.90;100.00;58478.06;5094235;28;20188;-81
2021/09/21 03:05:19;;;;;;;8.50;4.90;;;;;;;-143.90;100.00;58478.06;5076495;28;20414;-82
2021/09/21 03:07:48;;;;;;;8.63;5.50;;;;;;;-143.90;100.00;58478.06;5094109;28;20600;-83
2021/09/21 03:18:04;;;;;;;7.10;4.80;;;;;;;-143.90;100.00;58478.06;5094853;28;20202;-80
2021/09/21 03:20:31;;;;;;;7.20;4.77;;;;;;;-143.90;100.00;58478.06;5076857;28;20476;-82
2021/09/21 03:22:57;;;;;;;7.80;5.10;;;;;;;-143.90;100.00;58478.06;5095309;28;20458;-81
2021/09/21 03:25:22;;;;;;;7.80;4.80;;;;;;;-143.90;100.00;58478.06;5094127;28;20425;-81
2021/09/21 03:27:48;;;;;;;7.30;5.10;;;;;;;-143.90;100.00;58478.06;5094541;28;20221;-81
2021/09/21 03:30:14;;;;;;;8.33;5.27;;;;;;;-143.90;100.00;58478.06;5095228;28;20213;-80
2021/09/21 03:32:42;;;;;;;8.10;4.70;;;;;;;-143.90;100.00;58478.06;5094572;28;20417;-81
2021/09/21 03:35:09;;;;;;;8.20;5.40;;;;;;;-143.90;100.00;58478.06;5093929;28;20445;-77
2021/09/21 03:37:35;;;;;;;8.30;4.87;;;;;;;-143.90;100.00;58478.06;5094172;28;20833;-80
2021/09/21 03:40:00;;;;;;;9.30;5.27;;;;;;;-143.90;100.00;58478.06;5094832;28;20927;-82
2021/09/21 03:42:26;;;;;;;8.43;5.70;;;;;;;-143.90;100.00;58478.06;5093893;28;20505;-79
2021/09/21 03:44:51;;;;;;;8.60;5.50;;;;;;;-143.90;100.00;58478.06;5094775;28;20551;-86
2021/09/21 03:47:17;;;;;;;12.57;5.17;;;;;;;-143.90;100.00;58478.06;5096093;28;20199;-88
2021/09/21 03:49:43;;;;;;;8.40;4.83;;;;;;;-143.90;100.00;58478.06;5096485;28;20308;-86
2021/09/21 03:52:08;;;;;;;8.03;5.13;;;;;;;-143.90;100.00;58478.06;5099341;28;20713;-86
2021/09/21 03:54:34;;;;;;;8.07;5.50;;;;;;;-143.90;100.00;58478.06;5097000;28;20478;-88
2021/09/21 03:57:00;;;;;;;8.10;5.60;;;;;;;-143.90;100.00;58478.06;5093982;28;20168;-84
2021/09/21 03:59:26;;;;;;;8.97;5.80;;;;;;;-143.90;100.00;58478.06;5089292;28;20197;-82
2021/09/21 04:01:52;;;;;;;9.50;5.43;;;;;;;-143.90;100.00;58478.06;5095326;28;20428;-82
2021/09/21 04:04:17;;;;;;;7.67;5.60;;;;;;;-143.90;100.00;58478.06;5094994;28;20168;-80
2021/09/21 04:06:43;;;;;;;7.43;5.50;;;;;;;-143.90;100.00;58478.06;5094395;28;20424;-79
2021/09/21 04:09:09;;;;;;;6.87;4.83;;;;;;;-143.90;100.00;58478.06;5094442;28;20229;-80
2021/09/21 04:11:35;;;;;;;8.63;5.10;;;;;;;-143.90;100.00;58478.06;5095164;28;20826;-81
2021/09/21 04:14:01;;;;;;;7.20;4.20;;;;;;;-143.90;100.00;58478.06;5094657;28;20164;-83
2021/09/21 04:16:28;;;;;;;6.00;3.90;;;;;;;-143.90;100.00;58478.06;5076578;28;20171;-79
2021/09/21 04:18:55;;;;;;;6.80;4.30;;;;;;;-143.90;100.00;58478.06;5094988;28;20386;-83
2021/09/21 04:21:21;;;;;;;8.77;5.07;;;;;;;-143.90;100.00;58478.06;5094216;28;20487;-80
2021/09/21 04:23:46;;;;;;;7.03;4.50;;;;;;;-143.90;100.00;58478.06;5074986;28;20433;-78
2021/09/21 04:26:12;;;;;;;7.20;4.67;;;;;;;-143.90;100.00;58478.06;5075096;28;20429;-80
2021/09/21 04:28:39;;;;;;;6.67;4.50;;;;;;;-143.90;100.00;58478.06;5075562;28;20519;-81
2021/09/21 04:31:09;;;;;;;6.20;4.13;;;;;;;-143.90;100.00;58478.06;5093100;28;20168;-84
2021/09/21 04:33:40;;;;;;;7.23;5.23;;;;;;;-143.90;100.00;58478.06;5094803;28;20704;-80
2021/09/21 04:36:08;;;;;;;6.80;4.53;;;;;;;-143.90;100.00;58478.06;5092685;28;20484;-77
2021/09/21 04:38:34;;;;;;;9.20;4.13;;;;;;;-143.90;100.00;58478.06;5093221;28;20406;-82
2021/09/21 04:41:00;;;;;;;6.13;4.30;;;;;;;-143.90;100.00;58478.06;5093438;28;20536;-78
2021/09/21 04:43:26;;;;;;;8.60;5.20;;;;;;;-143.90;100.00;58478.06;5075544;28;20430;-78
2021/09/21 04:45:52;;;;;;;6.37;4.37;;;;;;;-143.90;100.00;58478.06;5094061;28;20417;-79
2021/09/21 04:48:17;;;;;;;7.47;4.27;;;;;;;-143.90;100.00;58478.06;5075812;28;20445;-81
2021/09/21 04:50:43;;;;;;;7.43;4.50;;;;;;;-143.90;100.00;58478.06;5093813;28;20505;-81
2021/09/21 04:53:09;;;;;;;7.50;5.00;;;;;;;-143.90;100.00;58478.06;5093053;28;20195;-80
2021/09/21 04:55:34;;;;;;;6.53;3.90;;;;;;;-143.90;100.00;58478.06;5092814;28;20197;-82
2021/09/21 04:58:00;;;;;;;7.13;4.37;;;;;;;-143.90;100.00;58478.06;5094664;28;20176;-82
2021/09/21 05:00:25;;;;;;;7.10;4.60;;;;;;;-143.90;100.00;58478.06;5073855;28;20659;-80
2021/09/21 05:02:51;;;;;;;6.10;4.20;;;;;;;-143.90;100.00;58478.06;5092559;28;20189;-82
2021/09/21 05:05:17;;;;;;;6.60;4.30;;;;;;;-143.90;100.00;58478.06;5074618;28;20180;-83
2021/09/21 05:07:43;;;;;;;5.83;3.80;;;;;;;-143.90;100.00;58478.06;5092306;28;20221;-77
2021/09/21 05:10:09;;;;;;;7.97;4.27;;;;;;;-143.90;100.00;58478.06;5056897;28;20176;-77
2021/09/21 05:12:34;;;;;;;5.80;3.60;;;;;;;-143.90;100.00;58478.06;5091960;28;20422;-83
2021/09/21 05:15:00;;;;;;;6.73;4.33;;;;;;;-143.90;100.00;58478.06;5095016;28;20836;-86
2021/09/21 05:17:25;;;;;;;10.63;7.50;;;;;;;-143.90;100.00;58478.06;5073659;28;20186;-76
2021/09/21 05:19:52;;;;;;;6.70;3.83;;;;;;;-143.90;100.00;58478.06;5091858;28;20281;-86
2021/09/21 05:22:17;;;;;;;6.97;3.53;;;;;;;-143.90;100.00;58478.06;5112467;28;20163;-84
2021/09/21 05:24:43;;;;;;;5.83;3.87;;;;;;;-143.90;100.00;58478.06;5102778;28;20795;-80
2021/09/21 05:27:08;;;;;;;5.83;3.53;;;;;;;-143.90;100.00;58478.06;5100117;28;20440;-80
2021/09/21 05:29:34;;;;;;;10.47;5.83;;;;;;;-143.90;100.00;58478.06;5103997;28;20164;-81
2021/09/21 05:31:59;;;;;;;6.27;3.10;;;;;;;-143.90;100.00;58478.06;5101282;28;20159;-77
2021/09/21 05:34:26;;;;;;;10.40;3.40;;;;;;;-143.90;100.00;58478.06;5095772;28;20171;-78
2021/09/21 05:36:52;;;;;;;7.70;3.20;;;;;;;-143.90;100.00;58478.06;5091785;28;20215;-76
2021/09/21 05:39:17;;;;;;;7.70;3.20;;;;;;;-143.90;100.00;58478.06;5092169;28;20508;-78
2021/09/21 05:41:43;;;;;;;8.27;3.60;;;;;;;-143.90;100.00;58478.06;5091749;28;20776;-78
2021/09/21 05:44:09;;;;;;;10.63;3.70;;;;;;;-143.90;100.00;58478.06;5079212;28;20308;-78
2021/09/21 05:46:34;;;;;;;7.13;3.33;;;;;;;-143.90;100.00;58478.06;5112123;28;20151;-77
2021/09/21 05:49:00;;;;;;;5.60;2.73;;;;;;;-143.90;100.00;58478.06;5100433;28;20156;-79
2021/09/21 05:51:29;;;;;;;7.93;3.07;;;;;;;-143.90;100.00;58478.06;5090619;28;20164;-78
2021/09/21 05:53:55;;;;;;;5.27;3.13;;;;;;;-143.90;100.00;58478.06;5073792;28;20253;-78
2021/09/21 05:56:21;;;;;;;6.47;2.87;;;;;;;-143.90;100.00;58478.06;5073080;28;20433;-77
2021/09/21 05:58:47;;;;;;;9.67;3.33;;;;;;;-143.90;100.00;58478.06;5091784;28;20168;-78
2021/09/21 06:01:13;;;;;;;6.97;2.77;;;;;;;-143.90;100.00;58478.06;5090887;28;20449;-81
2021/09/21 06:03:38;;;;;;;4.90;3.00;;;;;;;-143.90;100.00;58478.06;5091318;28;20401;-82
2021/09/21 06:06:04;;;;;;;5.77;2.77;;;;;;;-143.90;100.00;58478.06;5090852;28;20167;-80
2021/09/21 06:08:30;;;;;;;6.97;3.40;;;;;;;-143.90;100.00;58478.06;5095138;28;20186;-80
2021/09/21 06:10:56;;;;;;;10.10;3.33;;;;;;;-143.90;100.00;58478.06;5111474;28;20226;-78
2021/09/21 06:13:21;;;;;;;5.70;2.97;;;;;;;-143.90;100.00;58478.06;5102567;28;20164;-82
2021/09/21 06:15:47;;;;;;;6.00;3.10;;;;;;;-143.90;100.00;58478.06;5091135;28;20630;-82
2021/09/21 06:18:14;;;;;;;5.87;3.10;;;;;;;-143.90;100.00;58478.06;5090844;28;20221;-78
2021/09/21 06:20:40;;;;;;;6.67;3.80;;;;;;;-143.90;100.00;58478.06;5072793;28;20282;-77
2021/09/21 06:23:07;;;;;;;5.80;2.93;;;;;;;-143.90;100.00;58478.06;5091205;28;20485;-76
2021/09/21 06:25:33;;;;;;;4.33;2.70;;;;;;;-143.90;100.00;58478.06;5090663;28;20503;-77
2021/09/21 06:27:59;;;;;;;10.27;3.63;;;;;;;-143.90;100.00;58478.06;5089886;28;20399;-79
2021/09/21 06:30:24;;;;;;;8.63;3.20;;;;;;;-143.90;100.00;58478.06;5090225;28;20409;-76
2021/09/21 06:32:50;;;;;;;5.50;3.20;;;;;;;-143.90;100.00;58478.06;5090428;28;20567;-79
2021/09/21 06:35:16;;;;;;;6.83;3.93;;;;;;;-143.90;100.00;58478.06;5090315;28;20197;-80
2021/09/21 06:37:42;;;;;;;7.97;3.73;;;;;;;-143.90;100.00;58478.06;5090365;28;20218;-80
2021/09/21 06:40:08;;;;;;;6.70;4.00;;;;;;;-143.90;100.00;58478.06;5091080;28;20453;-81
2021/09/21 06:42:35;;;;;;;7.33;3.87;;;;;;;-143.90;100.00;58478.06;5091362;28;20228;-77
2021/09/21 06:45:03;;;;;;;6.70;4.07;;;;;;;-143.90;100.00;58478.06;5090404;28;20498;-80
2021/09/21 06:47:29;;;;;;;8.30;3.63;;;;;;;-143.90;100.00;58478.06;5089407;28;20406;-77
2021/09/21 06:49:54;;;;;;;5.00;3.07;;;;;;;-143.90;100.00;58478.06;5072176;28;20410;-77
2021/09/21 06:52:20;;;;;;;7.33;4.30;;;;;;;-143.90;100.00;58478.06;5089059;28;20187;-78
2021/09/21 06:54:45;;;;;;;6.97;3.43;;;;;;;-143.90;100.00;58478.06;5090110;28;20642;-80
2021/09/21 06:57:11;;;;;;;6.50;3.40;;;;;;;-143.90;100.00;58478.06;5091216;28;20172;-82
2021/09/21 06:59:36;;;;;;;5.77;3.40;;;;;;;-143.90;100.00;58478.06;5090755;28;20617;-77
2021/09/21 07:02:02;;;;;;;7.57;3.53;;;;;;;-143.90;100.00;58478.06;5090561;28;20164;-78
2021/09/21 07:04:28;;;;;;;13.77;6.43;;;;;;;-143.90;100.00;58478.06;5090424;28;20168;-77
2021/09/21 07:06:53;;;;;;;7.03;3.33;;;;;;;-143.90;100.00;58478.06;5090978;28;20242;-76
2021/09/21 07:09:19;;;;;;;5.20;2.80;;;;;;;-143.90;100.00;58478.06;5090222;28;20156;-76
2021/09/21 07:11:44;;;;;;;5.20;3.03;;;;;;;-143.90;100.00;58478.06;5089550;28;20208;-78
2021/09/21 07:14:10;;;;;;;9.17;4.20;;;;;;;-143.90;100.00;58478.06;5089962;28;20242;-77
2021/09/21 07:16:36;;;;;;;6.77;2.87;;;;;;;-143.90;100.00;58478.06;5089486;28;20156;-76
2021/09/21 07:19:02;;;;;;;5.67;3.30;;;;;;;-143.90;100.00;58478.06;5089745;28;20398;-75
2021/09/21 07:21:28;;;;;;;5.40;2.83;;;;;;;-143.90;100.00;58478.06;5090066;28;20290;-75
2021/09/21 07:23:54;;;;;;;4.50;2.40;;;;;;;-143.90;100.00;58478.06;5093548;28;20156;-75
2021/09/21 07:26:20;;;;;;;5.37;3.00;;;;;;;-143.90;100.00;58478.06;5093091;28;20764;-76
2021/09/21 07:28:46;;;;;;;4.87;2.10;;;;;;;-143.90;100.00;58478.06;5092845;28;20469;-75
2021/09/21 07:31:12;;;;;;;7.30;4.13;;;;;;;-143.90;100.00;58478.06;5093010;28;20160;-74
2021/09/21 07:33:37;;;;;;;6.97;3.00;;;;;;;-143.90;100.00;58478.06;5093349;28;20439;-77
2021/09/21 07:36:03;;;;;;;5.10;3.00;;;;;;;-143.90;100.00;58478.06;5092941;28;20163;-75
2021/09/21 07:38:29;;;;;;;5.73;3.40;;;;;;;-143.90;100.00;58478.06;5074316;28;20172;-74
2021/09/21 07:40:54;;;;;;;6.50;2.77;;;;;;;-143.90;100.00;58478.06;5074297;28;20187;-73
2021/09/21 07:43:20;;;;;;;7.83;2.97;;;;;;;-143.90;100.00;58478.06;5074619;28;20164;-77
2021/09/21 07:45:45;;;;;;;5.70;3.10;;;;;;;-143.90;100.00;58478.06;5092603;28;20195;-73
2021/09/21 07:48:17;;;;;;;5.87;3.07;;;;;;;-143.90;100.00;58478.06;5092529;28;20236;-76
2021/09/21 07:50:42;;;;;;;5.20;3.30;;;;;;;-143.90;100.00;58478.06;5092533;28;20536;-76
2021/09/21 07:53:08;;;;;;;5.40;2.57;;;;;;;-143.90;100.00;58478.06;5092228;28;20417;-77
2021/09/21 07:55:33;;;;;;;5.50;3.67;;;;;;;-143.90;100.00;58478.06;5092723;28;20270;-76
2021/09/21 07:57:59;;;;;;;6.97;4.60;;;;;;;-143.90;100.00;58478.06;5092684;28;20172;-77
2021/09/21 08:00:26;;;;;;;7.10;2.83;;;;;;;-143.90;100.00;58478.06;5092170;28;20240;-76
2021/09/21 08:02:52;;;;;;;5.87;3.30;;;;;;;-143.90;100.00;58478.06;5093120;28;20148;-76
2021/09/21 08:05:20;;;;;;;7.13;3.23;;;;;;;-143.90;100.00;58478.06;5092530;28;20409;-77
2021/09/21 08:07:46;;;;;;;6.00;2.53;;;;;;;-143.90;100.00;58478.06;5092723;28;20152;-77
2021/09/21 08:10:12;;;;;;;9.40;3.90;;;;;;;-143.90;100.00;58478.06;5092771;28;20405;-77
2021/09/21 08:12:40;;;;;;;7.80;2.73;;;;;;;-143.90;100.00;58478.06;5092519;28;20493;-77
2021/09/21 08:15:07;;;;;;;5.13;2.80;;;;;;;-143.90;100.00;58478.06;5092601;28;21001;-76
2021/09/21 08:17:33;;;;;;;9.00;2.87;;;;;;;-143.90;100.00;58478.06;5092424;28;20862;-75
2021/09/21 08:19:58;;;;;;;6.07;3.47;;;;;;;-143.90;100.00;58478.06;5091632;28;20441;-77
2021/09/21 08:22:26;;;;;;;5.17;2.63;;;;;;;-143.90;100.00;58478.06;5091345;28;20176;-78
2021/09/21 08:24:51;;;;;;;5.07;2.80;;;;;;;-143.90;100.00;58478.06;5092622;28;20163;-74
2021/09/21 08:27:17;;;;;;;6.70;3.03;;;;;;;-143.90;100.00;58478.06;5092048;28;20792;-77
2021/09/21 08:29:44;;;;;;;6.07;3.03;;;;;;;-143.90;100.00;58478.06;5091755;28;20171;-76
2021/09/21 08:32:09;;;;;;;6.30;2.70;;;;;;;-143.90;100.00;58478.06;5091611;28;20167;-77
2021/09/21 08:34:35;;;;;;;7.27;4.43;;;;;;;-143.90;100.00;58478.06;5072151;28;20421;-76
2021/09/21 08:37:00;;;;;;;7.30;2.90;;;;;;;-143.90;100.00;58478.06;5090396;28;20630;-76
2021/09/21 08:39:26;;;;;;;5.23;2.97;;;;;;;-143.90;100.00;58478.06;5091125;28;20186;-77
2021/09/21 08:41:52;;;;;;;4.97;2.47;;;;;;;-143.90;100.00;58478.06;5090903;28;20256;-75
2021/09/21 08:44:19;;;;;;;5.53;2.70;;;;;;;-143.90;100.00;58478.06;5090432;28;20209;-74
2021/09/21 08:46:45;;;;;;;5.10;2.80;;;;;;;-143.90;100.00;58478.06;5072916;28;20414;-76
2021/09/21 08:49:11;;;;;;;7.73;3.03;;;;;;;-143.90;100.00;58478.06;5091017;28;20398;-77
2021/09/21 08:51:37;;;;;;;5.20;2.80;;;;;;;-143.90;100.00;58478.06;5090671;28;20851;-76
2021/09/21 08:54:03;;;;;;;4.80;2.53;;;;;;;-143.90;100.00;58478.06;5072553;28;20418;-78
2021/09/21 08:56:28;;;;;;;4.50;2.23;;;;;;;-143.90;100.00;58478.06;5090484;28;20534;-77
2021/09/21 08:59:04;;;;;;;7.17;2.90;;;;;;;-143.90;100.00;58478.06;5090504;28;20546;-77
2021/09/21 09:02:05;;;;;;;6.17;2.13;;;;;;;-143.90;100.00;58478.06;5090215;28;20191;-77
2021/09/21 09:04:30;;;;;;;6.27;2.90;;;;;;;-143.90;100.00;58478.06;5057286;28;20466;-75
2021/09/21 09:06:58;;;;;;;4.53;2.23;;;;;;;-143.90;100.00;58478.06;5072007;28;20486;-77
2021/09/21 09:09:26;;;;;;;5.03;2.80;;;;;;;-143.90;100.00;58478.06;5090279;28;20557;-76
2021/09/21 09:11:54;;;;;;;5.07;2.20;;;;;;;-143.90;100.00;58478.06;5105887;28;20525;-76
2021/09/21 09:14:23;;;;;;;5.07;2.63;;;;;;;-143.90;100.00;58478.06;5090085;28;20498;-75
2021/09/21 09:16:56;;;;;;;14.70;3.57;;;;;;;-143.90;100.00;58478.06;5090526;28;20410;-76
2021/09/21 09:19:32;;;;;;;4.33;2.20;;;;;;;-143.90;100.00;58478.06;5090945;28;20438;-76
2021/09/21 09:22:05;;;;;;;6.10;2.47;;;;;;;-143.90;100.00;58478.06;5090763;28;20778;-77
2021/09/21 09:24:31;;;;;;;5.20;2.43;;;;;;;-143.90;100.00;58478.06;5090186;28;20467;-77
2021/09/21 09:26:56;;;;;;;5.50;2.30;;;;;;;-143.90;100.00;58478.06;5090255;28;20824;-76
2021/09/21 09:29:22;;;;;;;4.30;2.10;;;;;;;-143.90;100.00;58478.06;5089773;28;20191;-75
2021/09/21 09:31:47;;;;;;;4.67;2.17;;;;;;;-143.90;100.00;58478.06;5088770;28;20194;-75
2021/09/21 09:34:21;;;;;;;4.73;2.63;;;;;;;-143.90;100.00;58478.06;5071636;28;20164;-77
2021/09/21 09:36:52;;;;;;;5.23;2.00;;;;;;;-143.90;100.00;58478.06;5071944;28;20682;-75
2021/09/21 09:39:22;;;;;;;5.10;2.60;;;;;;;-143.90;100.00;58478.06;5090038;28;20425;-75
2021/09/21 09:41:50;;;;;;;5.80;1.93;;;;;;;-143.90;100.00;58478.06;5089796;28;20920;-77
2021/09/21 09:44:18;;;;;;;5.70;2.40;;;;;;;-143.90;100.00;58478.06;5090126;28;20398;-77
2021/09/21 09:47:04;;;;;;;4.83;2.83;;;;;;;-143.90;100.00;58478.06;5089935;28;20402;-77
2021/09/21 09:49:38;;;;;;;5.03;2.17;;;;;;;-143.90;100.00;58478.06;5089916;28;20489;-76
2021/09/21 09:52:10;;;;;;;5.83;3.20;;;;;;;-143.90;100.00;58478.06;5090334;28;20425;-76
2021/09/21 09:54:38;;;;;;;4.60;2.53;;;;;;;-143.90;100.00;58478.06;5088846;28;20400;-76
2021/09/21 09:57:05;;;;;;;5.30;2.83;;;;;;;-143.90;100.00;58478.06;5090042;28;20418;-77
2021/09/21 09:59:31;;;;;;;5.30;2.67;;;;;;;-143.90;100.00;58478.06;5088942;28;20505;-76
2021/09/21 10:01:57;;;;;;;4.30;2.23;;;;;;;-143.90;100.00;58478.06;5071110;28;20967;-76
2021/09/21 10:04:23;;;;;;;4.40;2.10;;;;;;;-143.90;100.00;58478.06;5089394;28;20405;-76
2021/09/21 10:06:49;;;;;;;5.23;2.53;;;;;;;-143.90;100.00;58478.06;5089232;28;20152;-75
2021/09/21 10:09:17;;;;;;;8.10;2.90;;;;;;;-143.90;100.00;58478.06;5089009;28;20386;-76
2021/09/21 10:11:45;;;;;;;7.63;2.80;;;;;;;-143.90;100.00;58478.06;5088678;28;20394;-77
2021/09/21 10:14:12;;;;;;;4.87;2.27;;;;;;;-143.90;100.00;58478.06;5088011;28;20917;-78
2021/09/21 10:16:51;;;;;;;6.90;2.30;;;;;;;-143.90;100.00;58478.06;5070709;28;20408;-78
2021/09/21 10:19:21;;;;;;;5.23;2.50;;;;;;;-143.90;100.00;58478.06;5088560;28;20486;-75
2021/09/21 10:21:48;;;;;;;10.67;2.77;;;;;;;-143.90;100.00;58478.06;5088446;28;21026;-75
2021/09/21 10:24:14;;;;;;;8.37;2.80;;;;;;;-143.90;100.00;58478.06;5089398;28;20778;-77
2021/09/21 10:26:43;;;;;;;6.07;2.73;;;;;;;-143.90;100.00;58478.06;5088747;28;20892;-77
2021/09/21 10:29:14;;;;;;;5.57;3.10;;;;;;;-143.90;100.00;58478.06;5089035;28;20394;-78
2021/09/21 10:31:41;;;;;;;5.23;2.90;;;;;;;-143.90;100.00;58478.06;5089010;28;20398;-78
2021/09/21 10:34:16;;;;;;;4.90;3.13;;;;;;;-143.90;100.00;58478.06;5089007;28;20420;-76
2021/09/21 10:36:51;;;;;;;4.50;2.33;;;;;;;-143.90;100.00;58478.06;5089084;28;20461;-75
2021/09/21 10:39:20;;;;;;;6.40;2.87;;;;;;;-143.90;100.00;58478.06;5088815;28;20910;-76
2021/09/21 10:42:07;;;;;;;6.80;3.87;;;;;;;-143.90;100.00;58478.06;5089151;28;20452;-77
2021/09/21 10:44:33;;;;;;;6.10;3.27;;;;;;;-143.90;100.00;58478.06;5088893;28;20899;-77
2021/09/21 10:47:05;;;;;;;5.20;2.83;;;;;;;-143.90;100.00;58478.06;5104544;28;20930;-78
2021/09/21 10:49:35;;;;;;;5.90;3.23;;;;;;;-143.90;100.00;58478.06;5088791;28;20916;-78
2021/09/21 10:52:04;;;;;;;7.17;2.87;;;;;;;-143.90;100.00;58478.06;5089317;28;20452;-78
2021/09/21 10:54:51;;;;;;;5.80;2.97;;;;;;;-143.90;100.00;58478.06;5070969;28;20504;-76
2021/09/21 10:57:40;;;;;;;4.47;2.67;;;;;;;-143.90;100.00;58478.06;5090975;28;20891;-79
2021/09/21 11:00:09;;;;;;;5.73;2.87;;;;;;;-143.90;100.00;58478.06;5092590;28;20605;-73
2021/09/21 11:02:38;;;;;;;5.53;3.00;;;;;;;-143.90;100.00;58478.06;5092390;28;20485;-77
2021/09/21 11:05:14;;;;;;;4.80;2.20;;;;;;;-143.90;100.00;58478.06;5094231;28;20386;-78
2021/09/21 11:07:49;;;;;;;5.10;2.40;;;;;;;-143.90;100.00;58478.06;5092136;28;20385;-73
2021/09/21 11:10:17;;;;;;;4.90;2.37;;;;;;;-143.90;100.00;58478.06;5092403;28;20431;-76
2021/09/21 11:12:47;;;;;;;5.90;3.00;;;;;;;-143.90;100.00;58478.06;5092187;28;20951;-76
2021/09/21 11:15:14;;;;;;;9.90;3.00;;;;;;;-143.90;100.00;58478.06;5092028;28;20497;-73
2021/09/21 11:17:40;;;;;;;4.83;2.50;;;;;;;-143.90;100.00;58478.06;5091862;28;20397;-78
2021/09/21 11:20:06;;;;;;;7.03;2.73;;;;;;;-143.90;100.00;58478.06;5092710;28;20823;-78